Time;durP1;ratioP1;P1;durP2;ratioP2;P2;SDS_P1;SDS_P2;PMS_P1;PMS_P2;Temp;Humidity;BMP_temperature;BMP_pressure;BME280_temperature;BME280_humidity;BME280_pressure;Samples;Min_cycle;Max_cycle;Signal;HPM_P1;HPM_P2
2022/09/18 00:00:12;;;;;;;5.05;1.58;;;;;;;9.90;100.00;99461.44;5570599;32;33986;-70
2022/09/18 00:03:15;;;;;;;3.50;1.70;;;;;;;10.02;100.00;99461.81;5570560;32;34498;-67
2022/09/18 00:06:23;;;;;;;4.80;1.60;;;;;;;10.07;100.00;99471.84;5570501;32;33949;-67
2022/09/18 00:09:26;;;;;;;2.50;1.40;;;;;;;10.07;100.00;99469.19;5570456;32;34002;-66
2022/09/18 00:12:28;;;;;;;4.65;1.30;;;;;;;10.07;100.00;99477.13;5569247;32;34130;-66
2022/09/18 00:15:31;;;;;;;2.67;1.25;;;;;;;10.05;100.00;99469.38;5556352;32;33579;-68
2022/09/18 00:18:34;;;;;;;3.22;1.40;;;;;;;10.04;100.00;99455.28;5570310;32;34190;-69
2022/09/18 00:21:40;;;;;;;2.47;1.20;;;;;;;10.03;100.00;99455.47;5570404;32;34640;-68
2022/09/18 00:24:43;;;;;;;6.85;1.85;;;;;;;10.01;100.00;99468.94;5570768;32;34023;-68
2022/09/18 00:27:46;;;;;;;4.05;1.95;;;;;;;10.02;100.00;99472.41;5556450;32;34050;-68
2022/09/18 00:30:48;;;;;;;5.53;1.60;;;;;;;10.08;100.00;99461.03;5570289;32;34001;-68
2022/09/18 00:33:51;;;;;;;3.75;1.60;;;;;;;10.07;100.00;99464.69;5570417;32;34999;-66
2022/09/18 00:36:54;;;;;;;8.60;2.12;;;;;;;10.14;100.00;99473.53;5570109;32;33899;-67
2022/09/18 00:39:57;;;;;;;4.40;1.33;;;;;;;10.13;100.00;99479.84;5570334;32;34559;-66
2022/09/18 00:43:20;;;;;;;5.97;1.98;;;;;;;10.17;100.00;99482.97;5570202;32;34381;-68
2022/09/18 00:46:27;;;;;;;4.10;1.73;;;;;;;10.13;100.00;99461.28;5570236;32;34028;-67
2022/09/18 00:49:31;;;;;;;4.97;1.80;;;;;;;10.15;100.00;99475.19;5570545;32;33888;-68
2022/09/18 00:52:59;;;;;;;4.28;1.50;;;;;;;10.18;100.00;99455.47;5570376;32;34024;-68
2022/09/18 00:56:03;;;;;;;2.92;1.60;;;;;;;10.13;100.00;99460.47;5546246;32;33851;-68
2022/09/18 00:59:09;;;;;;;3.62;1.42;;;;;;;10.11;100.00;99467.81;5570093;32;34359;-68
2022/09/18 01:02:12;;;;;;;5.87;1.60;;;;;;;10.11;100.00;99468.63;5556341;32;34821;-68
2022/09/18 01:05:21;;;;;;;5.30;1.83;;;;;;;10.08;100.00;99465.50;5569992;32;34859;-67
2022/09/18 01:08:28;;;;;;;6.62;1.70;;;;;;;10.09;100.00;99470.62;5570043;32;33994;-68
2022/09/18 01:12:06;;;;;;;4.18;1.60;;;;;;;10.09;100.00;99457.38;5570354;32;33965;-68
2022/09/18 01:15:38;;;;;;;4.62;1.67;;;;;;;10.09;100.00;99473.28;5527237;32;32579;-68
2022/09/18 01:18:50;;;;;;;5.78;1.70;;;;;;;10.05;100.00;99474.66;5569834;32;33919;-69
2022/09/18 01:22:27;;;;;;;6.12;1.80;;;;;;;10.02;100.00;99467.09;5556509;32;34319;-67
2022/09/18 01:25:58;;;;;;;7.62;1.67;;;;;;;9.97;100.00;99470.28;5569836;32;34044;-67
2022/09/18 01:29:52;;;;;;;4.95;1.83;;;;;;;9.95;100.00;99477.63;5569687;32;35184;-68
2022/09/18 01:33:07;;;;;;;6.45;1.70;;;;;;;9.88;100.00;99483.81;5537701;32;32925;-69
2022/09/18 01:36:14;;;;;;;7.28;1.87;;;;;;;9.83;100.00;99486.19;5569875;32;33920;-68
2022/09/18 01:39:35;;;;;;;5.22;1.77;;;;;;;9.75;100.00;99473.91;5569890;32;34649;-68
2022/09/18 01:42:40;;;;;;;7.07;1.90;;;;;;;9.71;100.00;99475.28;5569652;32;34177;-68
2022/09/18 01:45:46;;;;;;;7.87;1.92;;;;;;;9.67;100.00;99484.59;5569674;32;34243;-69
2022/09/18 01:48:59;;;;;;;3.92;1.45;;;;;;;9.64;100.00;99478.81;5569623;32;35167;-68
2022/09/18 01:52:10;;;;;;;4.75;1.70;;;;;;;9.60;100.00;99494.25;5569500;32;34336;-68
2022/09/18 01:55:20;;;;;;;4.62;1.58;;;;;;;9.59;100.00;99496.09;5569472;32;33949;-67
2022/09/18 01:58:26;;;;;;;4.20;1.70;;;;;;;9.60;100.00;99497.72;5569378;32;34592;-68
2022/09/18 02:01:34;;;;;;;4.20;1.65;;;;;;;9.62;100.00;99510.81;5569373;32;33992;-68
2022/09/18 02:04:41;;;;;;;4.95;1.60;;;;;;;9.55;100.00;99509.88;5555747;32;32569;-68
2022/09/18 02:08:22;;;;;;;9.15;1.70;;;;;;;9.54;100.00;99522.28;5569251;32;34075;-66
2022/09/18 02:11:26;;;;;;;6.97;2.00;;;;;;;9.62;100.00;99520.56;5561884;32;34667;-66
2022/09/18 02:14:34;;;;;;;3.47;1.40;;;;;;;9.57;100.00;99537.84;5555461;32;33822;-67
2022/09/18 02:17:40;;;;;;;5.70;1.50;;;;;;;9.55;100.00;99546.94;5569073;32;33981;-69
2022/09/18 02:20:46;;;;;;;4.55;1.40;;;;;;;9.45;100.00;99549.84;5555026;32;32563;-67
2022/09/18 02:23:50;;;;;;;5.37;1.70;;;;;;;9.44;100.00;99566.72;5569006;32;34054;-67
2022/09/18 02:26:53;;;;;;;4.80;1.48;;;;;;;9.43;100.00;99557.16;5569274;32;33954;-67
2022/09/18 02:29:59;;;;;;;4.57;1.50;;;;;;;9.42;100.00;99563.47;5568893;32;34581;-68
2022/09/18 02:33:02;;;;;;;3.72;1.35;;;;;;;9.35;100.00;99570.47;5568774;32;34617;-67
2022/09/18 02:36:26;;;;;;;5.95;1.50;;;;;;;9.33;100.00;99572.50;5570228;32;34285;-66
2022/09/18 02:39:44;;;;;;;2.75;1.23;;;;;;;9.32;100.00;99568.19;5571296;32;34010;-66
2022/09/18 02:43:18;;;;;;;5.12;1.50;;;;;;;9.28;100.00;99572.19;5571513;32;34136;-66
2022/09/18 02:46:36;;;;;;;5.07;1.45;;;;;;;9.23;100.00;99573.72;5571280;32;34059;-68
2022/09/18 02:50:10;;;;;;;3.37;1.12;;;;;;;9.11;100.00;99573.31;5571291;32;34029;-67
2022/09/18 02:53:20;;;;;;;5.37;1.40;;;;;;;9.18;100.00;99589.31;5568698;32;34657;-67
2022/09/18 02:56:31;;;;;;;2.40;1.17;;;;;;;9.13;100.00;99590.69;5571197;32;34616;-67
2022/09/18 02:59:41;;;;;;;3.90;1.25;;;;;;;9.16;100.00;99578.91;5571441;32;34575;-66
2022/09/18 03:02:46;;;;;;;5.95;1.30;;;;;;;9.13;100.00;99589.84;5571084;32;33906;-66
2022/09/18 03:05:50;;;;;;;3.45;1.20;;;;;;;9.07;100.00;99591.38;5571068;32;33987;-67
2022/09/18 03:08:52;;;;;;;4.60;1.20;;;;;;;9.05;100.00;99589.94;5571101;32;34399;-67
2022/09/18 03:11:55;;;;;;;4.95;1.05;;;;;;;9.10;100.00;99593.66;5571043;32;33971;-66
2022/09/18 03:15:00;;;;;;;4.85;1.40;;;;;;;9.02;99.98;99593.72;5570917;32;34832;-67
2022/09/18 03:18:04;;;;;;;7.65;1.20;;;;;;;8.98;100.00;99595.09;5557611;32;33976;-68
2022/09/18 03:21:06;;;;;;;2.72;1.10;;;;;;;8.94;99.82;99585.88;5570905;32;35278;-66
2022/09/18 03:24:09;;;;;;;2.72;1.17;;;;;;;8.91;100.00;99598.59;5570984;32;35267;-64
2022/09/18 03:27:15;;;;;;;3.47;1.15;;;;;;;8.91;100.00;99603.88;5571114;32;33905;-67
2022/09/18 03:30:21;;;;;;;3.05;1.05;;;;;;;8.90;100.00;99608.38;5570880;32;35264;-67
2022/09/18 03:33:24;;;;;;;2.47;1.00;;;;;;;8.92;100.00;99609.03;5570839;32;34654;-66
2022/09/18 03:36:27;;;;;;;2.80;1.05;;;;;;;8.89;100.00;99598.81;5571226;32;34635;-67
2022/09/18 03:39:30;;;;;;;5.72;1.23;;;;;;;8.82;100.00;99610.25;5557450;32;34633;-66
2022/09/18 03:42:33;;;;;;;2.80;1.00;;;;;;;8.89;100.00;99611.19;5571003;32;33889;-66
2022/09/18 03:45:36;;;;;;;2.20;1.05;;;;;;;8.86;100.00;99604.41;5570689;32;35619;-65
2022/09/18 03:48:39;;;;;;;2.17;0.95;;;;;;;8.84;100.00;99606.44;5556837;32;33440;-67
2022/09/18 03:51:42;;;;;;;2.45;1.10;;;;;;;8.82;100.00;99615.53;5570676;32;34053;-65
2022/09/18 03:54:47;;;;;;;4.07;1.08;;;;;;;8.80;100.00;99613.06;5570608;32;33935;-64
2022/09/18 03:57:50;;;;;;;1.95;0.80;;;;;;;8.77;100.00;99616.06;5570970;32;33948;-66
2022/09/18 04:00:54;;;;;;;2.83;1.05;;;;;;;8.72;100.00;99623.69;5570794;32;33925;-67
2022/09/18 04:03:57;;;;;;;3.28;1.00;;;;;;;8.79;100.00;99621.19;5570681;32;33961;-66
2022/09/18 04:07:03;;;;;;;7.30;1.10;;;;;;;8.75;100.00;99633.09;5570857;32;34046;-67
2022/09/18 04:10:14;;;;;;;3.30;1.00;;;;;;;8.75;100.00;99638.41;5570480;32;34605;-65
2022/09/18 04:13:17;;;;;;;3.28;1.52;;;;;;;8.73;100.00;99644.69;5570545;32;34311;-65
2022/09/18 04:16:21;;;;;;;3.83;0.88;;;;;;;8.69;100.00;99661.91;5556963;32;34626;-64
2022/09/18 04:19:26;;;;;;;3.75;1.25;;;;;;;8.72;100.00;99669.47;5570682;32;33962;-66
2022/09/18 04:22:30;;;;;;;4.32;1.10;;;;;;;8.73;100.00;99667.66;5570743;32;34051;-67
2022/09/18 04:25:34;;;;;;;2.92;1.05;;;;;;;8.72;100.00;99679.22;5570384;32;33889;-66
2022/09/18 04:28:37;;;;;;;2.92;1.10;;;;;;;8.73;100.00;99684.34;5570203;32;34702;-67
2022/09/18 04:31:39;;;;;;;1.90;0.90;;;;;;;8.67;100.00;99692.97;5570375;32;34035;-65
2022/09/18 04:34:43;;;;;;;3.10;0.85;;;;;;;8.67;100.00;99689.50;5570683;32;33938;-64
2022/09/18 04:37:46;;;;;;;2.37;1.00;;;;;;;8.63;100.00;99696.13;5570439;32;33886;-64
2022/09/18 04:40:55;;;;;;;2.37;1.00;;;;;;;8.64;100.00;99705.72;5556789;32;33908;-66
2022/09/18 04:43:58;;;;;;;4.40;1.20;;;;;;;8.66;100.00;99704.56;5570003;32;33943;-67
2022/09/18 04:47:01;;;;;;;3.10;1.15;;;;;;;8.65;100.00;99716.12;5556500;32;32821;-66
2022/09/18 04:50:07;;;;;;;4.00;1.00;;;;;;;8.66;100.00;99712.50;5570289;32;33987;-65
2022/09/18 04:53:11;;;;;;;2.65;1.10;;;;;;;8.75;100.00;99718.56;5556703;32;33565;-66
2022/09/18 04:56:13;;;;;;;2.75;1.20;;;;;;;8.80;100.00;99721.50;5570382;32;34551;-66
2022/09/18 04:59:17;;;;;;;2.80;1.02;;;;;;;8.85;100.00;99724.47;5569159;32;34587;-65
2022/09/18 05:02:20;;;;;;;3.33;1.20;;;;;;;8.95;100.00;99738.31;5570072;32;33900;-65
2022/09/18 05:05:27;;;;;;;4.85;1.20;;;;;;;8.88;100.00;99728.56;5570365;32;33996;-66
2022/09/18 05:08:31;;;;;;;2.37;1.00;;;;;;;8.97;100.00;99733.66;5570090;32;33979;-65
2022/09/18 05:11:35;;;;;;;3.78;1.37;;;;;;;8.86;100.00;99728.72;5570042;32;34533;-65
2022/09/18 05:14:39;;;;;;;2.47;1.05;;;;;;;8.92;100.00;99729.88;5569895;32;34015;-65
2022/09/18 05:17:42;;;;;;;3.80;1.10;;;;;;;8.94;100.00;99730.53;5569769;32;34200;-65
2022/09/18 05:20:45;;;;;;;2.35;1.20;;;;;;;9.10;99.10;99727.81;5569760;32;35169;-64
2022/09/18 05:23:48;;;;;;;2.05;1.08;;;;;;;9.29;96.43;99735.31;5569881;32;33921;-67
2022/09/18 05:26:51;;;;;;;6.03;1.10;;;;;;;9.27;96.19;99739.09;5569747;32;34708;-65
2022/09/18 05:29:54;;;;;;;3.08;0.90;;;;;;;9.28;97.52;99738.12;5569806;32;33880;-67
2022/09/18 05:33:06;;;;;;;1.85;0.98;;;;;;;9.19;97.44;99745.28;5570147;32;34070;-64
2022/09/18 05:36:10;;;;;;;2.97;0.90;;;;;;;9.14;98.41;99753.75;5569770;32;35200;-66
2022/09/18 05:39:12;;;;;;;4.18;1.10;;;;;;;9.17;96.83;99752.56;5569999;32;33978;-67
2022/09/18 05:42:19;;;;;;;3.60;0.95;;;;;;;9.31;96.43;99748.34;5569704;32;33888;-65
2022/09/18 05:45:24;;;;;;;2.25;0.90;;;;;;;9.42;94.31;99742.66;5569576;32;35197;-67
2022/09/18 05:48:27;;;;;;;5.25;1.02;;;;;;;9.53;95.16;99752.84;5569894;32;34844;-65
2022/09/18 05:51:30;;;;;;;3.42;1.12;;;;;;;9.62;93.56;99757.09;5569564;32;33998;-66
2022/09/18 05:54:35;;;;;;;2.53;0.90;;;;;;;9.90;94.01;99754.69;5569816;32;35272;-66
2022/09/18 05:57:37;;;;;;;3.15;0.90;;;;;;;9.88;91.45;99754.88;5569544;32;33918;-65
2022/09/18 06:00:43;;;;;;;2.70;0.80;;;;;;;9.96;91.19;99752.19;5569409;32;34081;-66
2022/09/18 06:03:50;;;;;;;4.35;0.82;;;;;;;10.01;91.13;99757.75;5555824;32;34634;-66
2022/09/18 06:06:52;;;;;;;2.20;0.62;;;;;;;10.18;88.02;99765.56;5569362;32;34020;-65
2022/09/18 06:09:55;;;;;;;1.85;0.90;;;;;;;10.23;89.97;99760.56;5570270;32;33945;-66
2022/09/18 06:13:07;;;;;;;3.20;1.00;;;;;;;10.38;88.59;99761.41;5571590;32;34212;-64
2022/09/18 06:16:14;;;;;;;4.40;0.90;;;;;;;10.50;87.66;99767.09;5571557;32;34682;-67
2022/09/18 06:19:20;;;;;;;2.20;0.80;;;;;;;10.73;87.22;99768.66;5571323;32;34215;-67
2022/09/18 06:22:22;;;;;;;5.43;0.90;;;;;;;10.86;84.69;99768.81;5557762;32;35239;-65
2022/09/18 06:25:27;;;;;;;2.08;0.73;;;;;;;11.13;83.76;99780.59;5571456;32;33976;-67
2022/09/18 06:28:32;;;;;;;2.95;0.65;;;;;;;11.66;82.19;99768.72;5571184;32;34656;-67
2022/09/18 06:31:35;;;;;;;3.05;0.75;;;;;;;12.23;77.85;99773.13;5571250;32;34647;-66
2022/09/18 06:34:38;;;;;;;2.67;0.70;;;;;;;12.19;79.01;99775.38;5571711;32;34618;-68
2022/09/18 06:37:41;;;;;;;2.65;0.70;;;;;;;11.82;78.79;99769.50;5571298;32;33844;-67
2022/09/18 06:40:50;;;;;;;2.33;0.75;;;;;;;12.00;78.85;99780.50;5571307;32;33999;-65
2022/09/18 06:43:53;;;;;;;1.55;0.70;;;;;;;12.15;77.93;99775.94;5571085;32;33944;-65
2022/09/18 06:46:59;;;;;;;3.28;0.80;;;;;;;12.71;77.61;99775.91;5571023;32;33961;-66
2022/09/18 06:50:03;;;;;;;2.62;0.73;;;;;;;12.73;75.12;99773.88;5571160;32;34286;-66
2022/09/18 06:53:06;;;;;;;3.00;0.70;;;;;;;12.98;74.91;99786.47;5571183;32;34031;-65
2022/09/18 06:56:14;;;;;;;1.00;0.50;;;;;;;13.46;72.79;99783.81;5571546;32;33982;-65
2022/09/18 06:59:17;;;;;;;1.40;0.50;;;;;;;13.32;72.25;99780.31;5571016;32;35249;-67
2022/09/18 07:02:19;;;;;;;2.33;0.50;;;;;;;14.18;69.53;99783.97;5570901;32;33996;-65
2022/09/18 07:05:25;;;;;;;3.22;0.75;;;;;;;14.39;67.70;99790.94;5571326;32;34044;-67
2022/09/18 07:08:27;;;;;;;1.00;0.47;;;;;;;14.51;68.07;99791.97;5571243;32;34499;-67
2022/09/18 07:11:32;;;;;;;2.50;0.57;;;;;;;14.30;66.33;99805.47;5571325;32;34003;-65
2022/09/18 07:14:35;;;;;;;2.50;0.55;;;;;;;15.37;63.84;99799.72;5570856;32;33959;-67
2022/09/18 07:17:38;;;;;;;1.73;0.50;;;;;;;14.65;63.77;99798.91;5571117;32;33866;-66
2022/09/18 07:20:43;;;;;;;2.42;0.60;;;;;;;13.32;68.82;99806.12;5570277;32;34936;-68
2022/09/18 07:23:47;;;;;;;2.10;0.70;;;;;;;14.01;66.60;99801.38;5571252;32;34013;-65
2022/09/18 07:26:50;;;;;;;2.95;0.77;;;;;;;13.68;66.86;99811.16;5570702;32;33936;-65
2022/09/18 07:29:53;;;;;;;1.85;0.60;;;;;;;12.80;69.79;99818.13;5570743;32;33943;-67
2022/09/18 07:32:55;;;;;;;2.05;0.52;;;;;;;13.01;67.26;99814.56;5557148;32;33539;-64
2022/09/18 07:36:05;;;;;;;4.05;0.98;;;;;;;13.27;66.33;99829.88;5557484;32;34004;-66
2022/09/18 07:39:08;;;;;;;1.95;0.50;;;;;;;14.15;62.23;99837.69;5556898;32;33152;-67
2022/09/18 07:42:13;;;;;;;1.92;0.50;;;;;;;14.34;61.82;99831.56;5557543;32;34497;-64
2022/09/18 07:45:16;;;;;;;2.28;0.60;;;;;;;14.75;60.16;99847.38;5570839;32;33962;-67
2022/09/18 07:48:19;;;;;;;3.42;0.70;;;;;;;14.70;59.52;99833.00;5556736;32;32485;-64
2022/09/18 07:51:22;;;;;;;4.35;0.70;;;;;;;15.21;57.12;99839.25;5556423;32;32419;-66
2022/09/18 07:54:29;;;;;;;3.90;0.50;;;;;;;14.17;60.56;99827.66;5557641;32;33877;-65
2022/09/18 07:57:32;;;;;;;1.80;0.60;;;;;;;14.25;60.56;99847.97;5570953;32;34065;-65
2022/09/18 08:00:36;;;;;;;0.90;0.50;;;;;;;13.28;63.73;99839.50;5570646;32;34248;-65
2022/09/18 08:03:39;;;;;;;7.70;0.77;;;;;;;13.54;61.76;99844.97;5570434;32;34591;-66
2022/09/18 08:06:45;;;;;;;3.05;0.60;;;;;;;13.26;62.79;99837.06;5556364;32;32553;-65
2022/09/18 08:09:49;;;;;;;4.10;0.57;;;;;;;12.99;64.24;99849.37;5570482;32;34081;-67
2022/09/18 08:12:54;;;;;;;3.28;0.65;;;;;;;12.62;65.04;99833.78;5570020;32;33979;-68
2022/09/18 08:15:57;;;;;;;1.60;0.80;;;;;;;12.56;65.82;99846.03;5570212;32;35156;-67
2022/09/18 08:19:00;;;;;;;1.95;0.57;;;;;;;12.65;66.44;99846.69;5570259;32;33996;-66
2022/09/18 08:22:03;;;;;;;1.95;0.55;;;;;;;12.27;67.75;99838.22;5570471;32;34251;-65
2022/09/18 08:25:08;;;;;;;1.80;0.45;;;;;;;12.52;67.84;99850.09;5570322;32;34258;-67
2022/09/18 08:28:10;;;;;;;3.15;0.68;;;;;;;12.53;67.06;99845.59;5556236;32;32448;-66
2022/09/18 08:31:15;;;;;;;1.77;0.60;;;;;;;12.61;68.14;99848.94;5570231;32;33975;-65
2022/09/18 08:34:18;;;;;;;1.70;0.62;;;;;;;12.55;68.57;99847.03;5555915;32;34066;-65
2022/09/18 08:37:20;;;;;;;5.45;0.60;;;;;;;12.78;67.84;99851.31;5556450;32;34052;-63
2022/09/18 08:40:50;;;;;;;2.97;0.70;;;;;;;12.81;66.92;99843.75;5570154;32;34097;-66
2022/09/18 08:44:06;;;;;;;4.85;0.80;;;;;;;12.61;65.79;99842.78;5556179;32;33063;-65
2022/09/18 08:47:30;;;;;;;2.30;0.73;;;;;;;12.68;66.42;99851.66;5569841;32;34619;-64
2022/09/18 08:50:39;;;;;;;3.85;0.70;;;;;;;12.84;66.71;99854.00;5555508;32;33569;-65
2022/09/18 08:53:45;;;;;;;1.60;0.50;;;;;;;12.84;64.61;99859.31;5569479;32;34155;-67
2022/09/18 08:56:51;;;;;;;3.47;0.80;;;;;;;12.89;65.86;99862.22;5555844;32;32550;-67
2022/09/18 09:00:01;;;;;;;3.00;0.70;;;;;;;12.42;65.31;99862.06;5569665;32;34611;-66
2022/09/18 09:03:23;;;;;;;3.05;0.90;;;;;;;12.54;64.89;99853.38;5555584;32;32788;-65
2022/09/18 09:06:46;;;;;;;3.65;0.90;;;;;;;12.75;65.26;99860.47;5569877;32;35249;-67
2022/09/18 09:10:03;;;;;;;2.10;0.70;;;;;;;12.88;65.05;99855.25;5569995;32;34176;-65
2022/09/18 09:13:39;;;;;;;5.18;0.80;;;;;;;12.92;64.88;99859.19;5569629;32;34631;-67
2022/09/18 09:16:50;;;;;;;5.47;0.70;;;;;;;12.48;64.75;99862.13;5555589;32;32589;-67
2022/09/18 09:20:23;;;;;;;1.95;0.45;;;;;;;12.58;65.56;99854.66;5569857;32;34697;-67
2022/09/18 09:23:43;;;;;;;2.67;0.60;;;;;;;12.63;65.38;99860.19;5569724;32;33920;-64
2022/09/18 09:26:47;;;;;;;;;;;;;;;12.70;66.51;99857.59;5556246;32;34122;-65
2022/09/18 09:29:59;;;;;;;1.20;0.50;;;;;;;12.69;65.97;99857.75;5569889;32;34320;-66
2022/09/18 09:33:15;;;;;;;1.48;0.50;;;;;;;12.86;65.64;99851.97;5555956;32;32562;-66
2022/09/18 09:36:23;;;;;;;2.80;0.70;;;;;;;13.46;63.34;99861.09;5555612;32;32568;-66
2022/09/18 09:39:34;;;;;;;2.22;0.68;;;;;;;13.71;61.30;99874.72;5555433;32;32446;-66
2022/09/18 09:42:48;;;;;;;5.28;0.73;;;;;;;13.23;62.22;99865.91;5569606;32;34025;-66
2022/09/18 09:45:55;;;;;;;2.87;0.65;;;;;;;13.49;62.29;99879.37;5555167;32;33306;-66
2022/09/18 09:49:07;;;;;;;3.05;0.80;;;;;;;13.80;61.75;99876.19;5555687;32;34082;-66
2022/09/18 09:52:26;;;;;;;5.12;0.62;;;;;;;13.13;62.59;99868.94;5555862;32;32787;-66
2022/09/18 09:55:31;;;;;;;2.00;0.57;;;;;;;13.03;64.05;99876.44;5569769;32;35259;-67
2022/09/18 09:58:38;;;;;;;5.15;1.08;;;;;;;13.31;62.70;99884.41;5569742;32;34286;-65
2022/09/18 10:02:03;;;;;;;1.85;0.60;;;;;;;13.12;62.00;99883.28;5569105;32;34027;-65
2022/09/18 10:05:24;;;;;;;4.15;0.60;;;;;;;12.80;64.74;99895.34;5569376;32;34552;-67
2022/09/18 10:08:44;;;;;;;2.47;0.70;;;;;;;12.85;64.06;99882.25;5569379;32;34098;-67
2022/09/18 10:11:55;;;;;;;2.42;0.50;;;;;;;13.03;63.96;99881.75;5569202;32;35249;-67
2022/09/18 10:15:12;;;;;;;2.75;0.70;;;;;;;13.08;63.71;99895.31;5569026;32;34299;-68
2022/09/18 10:18:25;;;;;;;2.25;0.57;;;;;;;13.15;64.00;99888.22;5568983;32;34550;-67
2022/09/18 10:21:33;;;;;;;1.15;0.57;;;;;;;13.14;64.95;99899.06;5569444;32;34262;-65
2022/09/18 10:25:01;;;;;;;1.65;0.50;;;;;;;13.27;62.42;99891.12;5568893;32;34068;-66
2022/09/18 10:28:09;;;;;;;3.55;0.43;;;;;;;13.76;60.73;99889.09;5568696;32;34662;-66
2022/09/18 10:31:14;;;;;;;9.85;0.85;;;;;;;13.77;60.27;99895.25;5568653;32;34222;-67
2022/09/18 10:34:42;;;;;;;3.70;0.80;;;;;;;14.01;59.56;99897.38;5541957;32;33677;-66
2022/09/18 10:37:45;;;;;;;1.92;0.62;;;;;;;14.07;59.98;99909.09;5568880;32;33990;-67
2022/09/18 10:40:50;;;;;;;2.12;0.50;;;;;;;14.08;59.14;99918.75;5568789;32;34937;-67
2022/09/18 10:44:11;;;;;;;3.60;0.60;;;;;;;13.89;60.42;99902.47;5568632;32;34003;-66
2022/09/18 10:47:40;;;;;;;2.90;0.80;;;;;;;14.12;59.46;99915.47;5554581;32;32627;-65
2022/09/18 10:51:01;;;;;;;4.60;0.50;;;;;;;14.98;56.36;99899.50;5565795;32;33997;-67
2022/09/18 10:54:17;;;;;;;2.22;0.60;;;;;;;15.87;53.48;99910.37;5568607;32;34592;-67
2022/09/18 10:57:26;;;;;;;3.30;0.60;;;;;;;16.44;51.46;99915.59;5570048;32;34585;-66
2022/09/18 11:00:35;;;;;;;4.23;0.60;;;;;;;15.48;52.47;99908.66;5557564;32;33940;-66
2022/09/18 11:03:42;;;;;;;1.92;0.70;;;;;;;14.98;55.94;99912.88;5571186;32;34066;-68
2022/09/18 11:06:45;;;;;;;2.87;0.70;;;;;;;14.25;57.95;99906.66;5556913;32;33934;-67
2022/09/18 11:09:49;;;;;;;0.62;0.40;;;;;;;13.91;59.36;99887.09;5557069;32;33416;-68
2022/09/18 11:12:58;;;;;;;3.42;0.90;;;;;;;14.11;58.19;99881.81;5571338;32;33911;-70
2022/09/18 11:16:04;;;;;;;1.02;0.47;;;;;;;16.26;52.64;99899.44;5570902;32;34039;-67
2022/09/18 11:19:22;;;;;;;1.73;0.60;;;;;;;17.57;48.50;99896.59;5556914;32;32989;-65
2022/09/18 11:22:43;;;;;;;3.83;0.70;;;;;;;16.93;50.20;99900.59;5570558;32;34675;-66
2022/09/18 11:25:46;;;;;;;2.58;0.80;;;;;;;16.88;49.96;99887.03;5557129;32;32690;-66
2022/09/18 11:29:05;;;;;;;2.28;0.80;;;;;;;18.15;47.74;99904.94;5556511;32;33916;-67
2022/09/18 11:32:30;;;;;;;2.10;0.60;;;;;;;21.44;42.16;99903.50;5557231;32;32414;-68
2022/09/18 11:35:33;;;;;;;2.17;0.60;;;;;;;17.78;47.81;99888.09;5557564;32;34748;-67
2022/09/18 11:38:43;;;;;;;2.22;0.80;;;;;;;17.65;47.17;99889.09;5556766;32;33042;-68
2022/09/18 11:41:49;;;;;;;2.72;0.50;;;;;;;16.55;50.26;99899.84;5570720;32;35105;-68
2022/09/18 11:44:52;;;;;;;1.85;0.60;;;;;;;15.37;52.65;99888.75;5556597;32;32451;-66
2022/09/18 11:48:16;;;;;;;1.65;0.68;;;;;;;15.19;53.20;99888.59;5571006;32;35127;-68
2022/09/18 11:51:39;;;;;;;1.42;0.52;;;;;;;16.05;51.43;99884.53;5570798;32;34609;-67
2022/09/18 11:54:54;;;;;;;2.53;0.70;;;;;;;21.33;40.98;99885.53;5556969;32;32763;-68
2022/09/18 11:57:58;;;;;;;4.80;0.60;;;;;;;24.49;33.39;99892.72;5570558;32;33854;-68
2022/09/18 12:01:14;;;;;;;1.45;0.50;;;;;;;20.77;38.48;99890.09;5570912;32;33975;-68
2022/09/18 12:04:38;;;;;;;1.52;0.57;;;;;;;18.40;43.69;99878.72;5570631;32;34614;-67
2022/09/18 12:08:05;;;;;;;3.42;0.60;;;;;;;17.80;46.03;99878.78;5556206;32;32732;-67
2022/09/18 12:11:32;;;;;;;2.30;0.70;;;;;;;17.60;46.41;99870.19;5570804;32;33971;-68
2022/09/18 12:14:46;;;;;;;2.12;0.80;;;;;;;17.54;46.85;99878.25;5570378;32;33890;-68
2022/09/18 12:18:03;;;;;;;4.78;0.70;;;;;;;16.72;47.70;99869.66;5570296;32;33875;-66
2022/09/18 12:21:14;;;;;;;3.20;0.70;;;;;;;18.24;44.64;99882.91;5570365;32;33888;-69
2022/09/18 12:24:20;;;;;;;3.20;0.70;;;;;;;17.38;46.69;99861.72;5570381;32;33860;-69
2022/09/18 12:27:27;;;;;;;2.05;0.75;;;;;;;16.59;49.52;99871.63;5570532;32;34019;-67
2022/09/18 12:30:42;;;;;;;2.03;0.60;;;;;;;15.66;51.39;99876.72;5556089;32;33453;-66
2022/09/18 12:33:47;;;;;;;3.08;0.80;;;;;;;15.20;53.01;99866.19;5570332;32;34613;-66
2022/09/18 12:37:20;;;;;;;2.28;0.60;;;;;;;15.37;52.72;99866.53;5570154;32;33922;-65
2022/09/18 12:40:41;;;;;;;5.25;0.73;;;;;;;15.11;53.18;99870.91;5546559;32;34173;-66
2022/09/18 12:44:31;;;;;;;3.72;0.80;;;;;;;14.70;53.75;99860.53;5555866;32;32476;-69
2022/09/18 12:47:36;;;;;;;5.95;0.70;;;;;;;15.25;52.70;99865.56;5570142;32;34573;-65
2022/09/18 12:50:58;;;;;;;2.35;0.60;;;;;;;17.98;44.48;99877.09;5570446;32;34065;-67
2022/09/18 12:54:38;;;;;;;3.85;0.70;;;;;;;19.00;42.41;99871.34;5556303;32;32775;-67
2022/09/18 12:58:05;;;;;;;3.80;0.70;;;;;;;21.15;36.96;99874.00;5555911;32;34076;-68
2022/09/18 13:01:32;;;;;;;3.15;0.75;;;;;;;23.12;34.04;99872.44;5556154;32;32588;-67
2022/09/18 13:04:43;;;;;;;4.90;1.02;;;;;;;26.06;29.08;99870.53;5556322;32;32647;-67
2022/09/18 13:07:53;;;;;;;2.25;0.60;;;;;;;27.71;25.41;99865.72;5570077;32;33934;-67
2022/09/18 13:11:03;;;;;;;1.62;0.60;;;;;;;27.43;25.59;99856.53;5569901;32;34595;-69
2022/09/18 13:14:33;;;;;;;1.10;0.50;;;;;;;23.45;30.66;99855.03;5569891;32;34055;-68
2022/09/18 13:17:42;;;;;;;2.85;0.68;;;;;;;24.63;29.31;99847.69;5562719;32;34311;-67
2022/09/18 13:20:45;;;;;;;;;;;;;;;22.24;31.44;99860.41;5555189;32;33972;-68
2022/09/18 13:23:51;;;;;;;3.42;0.40;;;;;;;18.43;37.55;99846.06;5569868;32;34783;-68
2022/09/18 13:26:55;;;;;;;2.00;0.57;;;;;;;17.83;39.75;99857.91;5556020;32;33119;-68
2022/09/18 13:30:13;;;;;;;1.65;0.60;;;;;;;17.30;40.72;99850.50;5569980;32;34531;-66
2022/09/18 13:33:25;;;;;;;2.50;0.60;;;;;;;16.70;41.43;99855.66;5555754;32;32696;-68
2022/09/18 13:36:36;;;;;;;1.40;0.57;;;;;;;16.82;39.93;99853.06;5570001;32;33896;-67
2022/09/18 13:39:39;;;;;;;1.45;0.47;;;;;;;16.83;40.17;99862.75;5569568;32;34033;-64
2022/09/18 13:43:21;;;;;;;4.07;0.75;;;;;;;16.75;41.62;99887.94;5555632;32;32557;-66
2022/09/18 13:46:38;;;;;;;2.85;0.73;;;;;;;15.83;43.54;99901.16;5555948;32;32689;-65
2022/09/18 13:49:48;;;;;;;4.18;0.70;;;;;;;15.43;47.38;99898.59;5569415;32;34568;-66
2022/09/18 13:52:54;;;;;;;2.75;0.90;;;;;;;15.11;48.10;99910.16;5569503;32;34098;-64
2022/09/18 13:55:58;;;;;;;3.72;0.70;;;;;;;16.65;44.19;99914.44;5569257;32;33979;-66
2022/09/18 13:59:00;;;;;;;0.95;0.57;;;;;;;15.39;47.89;99924.09;5569259;32;33909;-68
2022/09/18 14:02:20;;;;;;;2.50;0.57;;;;;;;14.73;50.78;99926.84;5568978;32;33939;-67
2022/09/18 14:05:37;;;;;;;10.48;0.73;;;;;;;14.11;54.13;99918.34;5569126;32;33992;-66
2022/09/18 14:08:40;;;;;;;1.50;0.60;;;;;;;14.27;53.97;99929.47;5569279;32;34630;-66
2022/09/18 14:11:43;;;;;;;1.35;0.50;;;;;;;14.03;55.59;99923.88;5569187;32;33993;-68
2022/09/18 14:15:16;;;;;;;0.98;0.50;;;;;;;14.11;54.53;99921.81;5568781;32;32439;-68
2022/09/18 14:18:30;;;;;;;3.60;0.60;;;;;;;14.83;52.27;99923.78;5555610;32;34226;-68
2022/09/18 14:21:39;;;;;;;1.40;0.47;;;;;;;14.94;52.10;99912.47;5568345;32;33899;-66
2022/09/18 14:24:48;;;;;;;1.12;0.52;;;;;;;14.76;50.53;99910.41;5554313;32;32670;-65
2022/09/18 14:27:56;;;;;;;1.77;0.60;;;;;;;14.68;52.65;99921.31;5568394;32;35272;-65
2022/09/18 14:31:25;;;;;;;1.25;0.37;;;;;;;14.80;53.18;99924.19;5569141;32;35239;-67
2022/09/18 14:34:40;;;;;;;1.85;0.50;;;;;;;14.66;52.47;99930.56;5571371;32;34656;-67
2022/09/18 14:37:44;;;;;;;1.83;0.47;;;;;;;14.53;51.96;99926.03;5571026;32;34630;-66
2022/09/18 14:40:53;;;;;;;3.15;0.60;;;;;;;14.57;53.64;99916.56;5557195;32;32431;-68
2022/09/18 14:43:59;;;;;;;1.40;0.60;;;;;;;14.55;53.29;99921.31;5571044;32;34166;-67
2022/09/18 14:47:04;;;;;;;3.05;0.60;;;;;;;14.47;54.90;99932.19;5557397;32;33417;-67
2022/09/18 14:50:23;;;;;;;1.73;0.60;;;;;;;14.28;56.17;99915.06;5571229;32;34247;-68
2022/09/18 14:53:27;;;;;;;1.27;0.40;;;;;;;13.97;58.50;99940.66;5556988;32;33079;-66